sensor_id;sensor_type;location;lat;lon;timestamp;pressure;altitude;pressure_sealevel;temperature;humidity
50867;BME280;36839;51.946;21.002;2022-12-10T00:01:44;99104.13;;;-0.79;100.00
50867;BME280;36839;51.946;21.002;2022-12-10T00:04:12;99100.59;;;-0.80;100.00
50867;BME280;36839;51.946;21.002;2022-12-10T00:06:39;99100.59;;;-0.80;100.00
50867;BME280;36839;51.946;21.002;2022-12-10T00:09:11;99102.55;;;-0.78;100.00
50867;BME280;36839;51.946;21.002;2022-12-10T00:11:38;99100.66;;;-0.77;100.00
50867;BME280;36839;51.946;21.002;2022-12-10T00:14:06;99100.66;;;-0.77;100.00
50867;BME280;36839;51.946;21.002;2022-12-10T00:16:33;99092.23;;;-0.78;100.00
50867;BME280;36839;51.946;21.002;2022-12-10T00:19:04;99097.66;;;-0.78;100.00
50867;BME280;36839;51.946;21.002;2022-12-10T00:21:32;99103.84;;;-0.80;100.00
50867;BME280;36839;51.946;21.002;2022-12-10T00:24:02;99103.84;;;-0.80;100.00
50867;BME280;36839;51.946;21.002;2022-12-10T00:26:32;99102.94;;;-0.83;100.00
50867;BME280;36839;51.946;21.002;2022-12-10T00:29:01;99096.98;;;-0.83;100.00
50867;BME280;36839;51.946;21.002;2022-12-10T00:31:31;99098.05;;;-0.84;100.00
50867;BME280;36839;51.946;21.002;2022-12-10T00:34:00;99103.59;;;-0.88;100.00
50867;BME280;36839;51.946;21.002;2022-12-10T00:36:29;99105.41;;;-0.91;100.00
50867;BME280;36839;51.946;21.002;2022-12-10T00:38:56;99105.41;;;-0.91;100.00
50867;BME280;36839;51.946;21.002;2022-12-10T00:41:25;99111.30;;;-0.85;100.00
50867;BME280;36839;51.946;21.002;2022-12-10T00:43:51;99105.77;;;-0.88;100.00
50867;BME280;36839;51.946;21.002;2022-12-10T00:46:19;99100.52;;;-0.92;100.00
50867;BME280;36839;51.946;21.002;2022-12-10T00:48:48;99112.13;;;-0.84;100.00
50867;BME280;36839;51.946;21.002;2022-12-10T00:51:22;99100.88;;;-0.88;100.00
50867;BME280;36839;51.946;21.002;2022-12-10T00:53:51;99107.91;;;-0.80;100.00
50867;BME280;36839;51.946;21.002;2022-12-10T00:56:26;99104.96;;;-0.79;100.00
50867;BME280;36839;51.946;21.002;2022-12-10T00:58:54;99110.84;;;-0.82;100.00
50867;BME280;36839;51.946;21.002;2022-12-10T01:01:28;99110.84;;;-0.82;100.00
50867;BME280;36839;51.946;21.002;2022-12-10T01:04:02;99110.02;;;-0.82;100.00
50867;BME280;36839;51.946;21.002;2022-12-10T01:06:34;99112.80;;;-0.80;100.00
50867;BME280;36839;51.946;21.002;2022-12-10T01:09:04;99107.60;;;-0.81;100.00
50867;BME280;36839;51.946;21.002;2022-12-10T01:11:34;99107.60;;;-0.81;100.00
50867;BME280;36839;51.946;21.002;2022-12-10T01:14:01;99094.80;;;-0.83;100.00
50867;BME280;36839;51.946;21.002;2022-12-10T01:16:28;99094.87;;;-0.81;100.00
50867;BME280;36839;51.946;21.002;2022-12-10T01:18:56;99090.73;;;-0.83;100.00
50867;BME280;36839;51.946;21.002;2022-12-10T01:21:27;99088.56;;;-0.84;100.00
50867;BME280;36839;51.946;21.002;2022-12-10T01:23:57;99089.09;;;-0.84;100.00
50867;BME280;36839;51.946;21.002;2022-12-10T01:26:26;99085.75;;;-0.87;100.00
50867;BME280;36839;51.946;21.002;2022-12-10T01:28:57;99093.28;;;-0.89;100.00
50867;BME280;36839;51.946;21.002;2022-12-10T01:31:26;99090.56;;;-0.89;100.00
50867;BME280;36839;51.946;21.002;2022-12-10T01:33:55;99084.78;;;-0.92;100.00
50867;BME280;36839;51.946;21.002;2022-12-10T01:36:26;99087.86;;;-0.89;100.00
50867;BME280;36839;51.946;21.002;2022-12-10T01:38:55;99088.98;;;-0.87;100.00
50867;BME280;36839;51.946;21.002;2022-12-10T01:41:31;99087.86;;;-0.89;100.00
50867;BME280;36839;51.946;21.002;2022-12-10T01:46:39;99083.27;;;-0.88;100.00
50867;BME280;36839;51.946;21.002;2022-12-10T01:49:08;99080.48;;;-0.91;100.00
50867;BME280;36839;51.946;21.002;2022-12-10T01:51:38;99093.81;;;-0.89;100.00
50867;BME280;36839;51.946;21.002;2022-12-10T01:54:07;99097.34;;;-0.89;100.00
50867;BME280;36839;51.946;21.002;2022-12-10T01:56:43;99090.04;;;-0.88;100.00
50867;BME280;36839;51.946;21.002;2022-12-10T01:59:12;99085.15;;;-0.89;100.00
50867;BME280;36839;51.946;21.002;2022-12-10T02:10:11;99077.25;;;-0.90;100.00
50867;BME280;36839;51.946;21.002;2022-12-10T02:12:54;99074.70;;;-0.94;100.00
50867;BME280;36839;51.946;21.002;2022-12-10T02:15:29;99074.70;;;-0.94;100.00
50867;BME280;36839;51.946;21.002;2022-12-10T02:17:55;99085.67;;;-0.89;100.00
50867;BME280;36839;51.946;21.002;2022-12-10T02:23:01;99074.47;;;-0.93;100.00
50867;BME280;36839;51.946;21.002;2022-12-10T02:28:23;99069.80;;;-0.95;100.00
50867;BME280;36839;51.946;21.002;2022-12-10T02:30:51;99069.80;;;-0.95;100.00
50867;BME280;36839;51.946;21.002;2022-12-10T02:33:23;99074.29;;;-0.98;100.00
50867;BME280;36839;51.946;21.002;2022-12-10T02:35:55;99074.29;;;-0.98;100.00
50867;BME280;36839;51.946;21.002;2022-12-10T02:38:31;99080.11;;;-0.94;100.00
50867;BME280;36839;51.946;21.002;2022-12-10T02:41:06;99074.89;;;-0.96;100.00
50867;BME280;36839;51.946;21.002;2022-12-10T02:43:35;99070.52;;;-0.97;100.00
50867;BME280;36839;51.946;21.002;2022-12-10T02:46:03;99069.47;;;-0.96;100.00
50867;BME280;36839;51.946;21.002;2022-12-10T02:48:32;99069.47;;;-0.96;100.00
50867;BME280;36839;51.946;21.002;2022-12-10T02:51:00;99070.23;;;-0.98;100.00
50867;BME280;36839;51.946;21.002;2022-12-10T02:53:29;99061.73;;;-1.01;100.00
50867;BME280;36839;51.946;21.002;2022-12-10T02:59:01;99067.22;;;-0.99;100.00
50867;BME280;36839;51.946;21.002;2022-12-10T03:04:02;99076.93;;;-1.00;100.00
50867;BME280;36839;51.946;21.002;2022-12-10T03:06:36;99079.88;;;-1.02;100.00
50867;BME280;36839;51.946;21.002;2022-12-10T03:09:05;99077.05;;;-1.04;100.00
50867;BME280;36839;51.946;21.002;2022-12-10T03:11:34;99077.05;;;-1.04;100.00
50867;BME280;36839;51.946;21.002;2022-12-10T03:14:13;99087.07;;;-1.05;100.00
50867;BME280;36839;51.946;21.002;2022-12-10T03:16:57;99085.72;;;-1.05;100.00
50867;BME280;36839;51.946;21.002;2022-12-10T03:19:47;99085.72;;;-1.05;100.00
50867;BME280;36839;51.946;21.002;2022-12-10T03:22:02;99085.81;;;-1.02;100.00
50867;BME280;36839;51.946;21.002;2022-12-10T03:24:34;99093.42;;;-1.02;100.00
50867;BME280;36839;51.946;21.002;2022-12-10T03:27:04;99096.13;;;-1.02;100.00
50867;BME280;36839;51.946;21.002;2022-12-10T03:29:49;99094.25;;;-1.01;100.00
50867;BME280;36839;51.946;21.002;2022-12-10T03:32:17;99096.13;;;-1.02;100.00
50867;BME280;36839;51.946;21.002;2022-12-10T03:34:44;99084.99;;;-1.03;100.00
50867;BME280;36839;51.946;21.002;2022-12-10T03:37:12;99080.40;;;-1.02;100.00
50867;BME280;36839;51.946;21.002;2022-12-10T03:39:40;99080.09;;;-1.03;100.00
50867;BME280;36839;51.946;21.002;2022-12-10T03:42:08;99074.34;;;-1.04;100.00
50867;BME280;36839;51.946;21.002;2022-12-10T03:44:38;99072.33;;;-1.09;100.00
50867;BME280;36839;51.946;21.002;2022-12-10T03:47:09;99072.33;;;-1.09;100.00
50867;BME280;36839;51.946;21.002;2022-12-10T03:49:37;99077.28;;;-1.06;100.00
50867;BME280;36839;51.946;21.002;2022-12-10T03:52:04;99072.33;;;-1.09;100.00
50867;BME280;36839;51.946;21.002;2022-12-10T03:54:33;99072.33;;;-1.09;100.00
50867;BME280;36839;51.946;21.002;2022-12-10T03:57:01;99066.30;;;-1.11;100.00
50867;BME280;36839;51.946;21.002;2022-12-10T03:59:30;99066.91;;;-1.09;100.00
50867;BME280;36839;51.946;21.002;2022-12-10T04:01:58;99065.55;;;-1.09;100.00
50867;BME280;36839;51.946;21.002;2022-12-10T04:04:25;99066.38;;;-1.08;100.00
50867;BME280;36839;51.946;21.002;2022-12-10T04:06:53;99071.13;;;-1.13;100.00
50867;BME280;36839;51.946;21.002;2022-12-10T04:09:19;99071.13;;;-1.13;100.00
50867;BME280;36839;51.946;21.002;2022-12-10T04:11:46;99081.44;;;-1.12;100.00
50867;BME280;36839;51.946;21.002;2022-12-10T04:14:15;99081.44;;;-1.12;100.00
50867;BME280;36839;51.946;21.002;2022-12-10T04:16:59;99085.70;;;-1.14;100.00
50867;BME280;36839;51.946;21.002;2022-12-10T04:19:27;99085.63;;;-1.17;100.00
50867;BME280;36839;51.946;21.002;2022-12-10T04:21:53;99086.67;;;-1.18;100.00
50867;BME280;36839;51.946;21.002;2022-12-10T04:24:38;99084.72;;;-1.20;100.00
50867;BME280;36839;51.946;21.002;2022-12-10T04:29:55;99083.59;;;-1.21;100.00
50867;BME280;36839;51.946;21.002;2022-12-10T04:32:24;99079.83;;;-1.20;100.00
50867;BME280;36839;51.946;21.002;2022-12-10T04:34:53;99080.36;;;-1.21;100.00
50867;BME280;36839;51.946;21.002;2022-12-10T04:37:21;99075.06;;;-1.25;100.00
50867;BME280;36839;51.946;21.002;2022-12-10T04:39:51;99081.30;;;-1.24;100.00
50867;BME280;36839;51.946;21.002;2022-12-10T04:42:22;99093.37;;;-1.20;100.00
50867;BME280;36839;51.946;21.002;2022-12-10T04:44:50;99091.49;;;-1.20;100.00
50867;BME280;36839;51.946;21.002;2022-12-10T04:47:18;99085.84;;;-1.18;100.00
50867;BME280;36839;51.946;21.002;2022-12-10T04:49:44;99096.91;;;-1.20;100.00
50867;BME280;36839;51.946;21.002;2022-12-10T04:52:14;99097.52;;;-1.18;100.00
50867;BME280;36839;51.946;21.002;2022-12-10T04:54:43;99100.45;;;-1.19;100.00
50867;BME280;36839;51.946;21.002;2022-12-10T04:57:12;99100.08;;;-1.23;100.00
50867;BME280;36839;51.946;21.002;2022-12-10T04:59:43;99096.31;;;-1.22;100.00
50867;BME280;36839;51.946;21.002;2022-12-10T05:02:09;99094.13;;;-1.22;100.00
50867;BME280;36839;51.946;21.002;2022-12-10T05:04:38;99094.13;;;-1.22;100.00
50867;BME280;36839;51.946;21.002;2022-12-10T05:07:05;99101.43;;;-1.23;100.00
50867;BME280;36839;51.946;21.002;2022-12-10T05:09:33;99103.31;;;-1.23;100.00
50867;BME280;36839;51.946;21.002;2022-12-10T05:12:00;99098.91;;;-1.24;100.00
50867;BME280;36839;51.946;21.002;2022-12-10T05:14:27;99107.05;;;-1.24;100.00
50867;BME280;36839;51.946;21.002;2022-12-10T05:16:55;99106.84;;;-1.23;100.00
50867;BME280;36839;51.946;21.002;2022-12-10T05:19:22;99113.62;;;-1.23;100.00
50867;BME280;36839;51.946;21.002;2022-12-10T05:21:50;99116.22;;;-1.25;100.00
50867;BME280;36839;51.946;21.002;2022-12-10T05:24:38;99114.05;;;-1.26;100.00
50867;BME280;36839;51.946;21.002;2022-12-10T05:27:07;99119.16;;;-1.27;100.00
50867;BME280;36839;51.946;21.002;2022-12-10T05:29:33;99119.69;;;-1.27;100.00
50867;BME280;36839;51.946;21.002;2022-12-10T05:32:03;99117.50;;;-1.28;100.00
50867;BME280;36839;51.946;21.002;2022-12-10T05:34:30;99128.64;;;-1.27;100.00
50867;BME280;36839;51.946;21.002;2022-12-10T05:36:59;99126.45;;;-1.27;100.00
50867;BME280;36839;51.946;21.002;2022-12-10T05:39:26;99130.82;;;-1.26;100.00
50867;BME280;36839;51.946;21.002;2022-12-10T05:41:54;99135.48;;;-1.24;100.00
50867;BME280;36839;51.946;21.002;2022-12-10T05:44:22;99122.09;;;-1.28;100.00
50867;BME280;36839;51.946;21.002;2022-12-10T05:46:50;99124.05;;;-1.26;100.00
50867;BME280;36839;51.946;21.002;2022-12-10T05:49:19;99129.77;;;-1.25;100.00
50867;BME280;36839;51.946;21.002;2022-12-10T05:51:45;99119.45;;;-1.26;100.00
50867;BME280;36839;51.946;21.002;2022-12-10T05:54:15;99124.35;;;-1.25;100.00
50867;BME280;36839;51.946;21.002;2022-12-10T05:56:41;99121.11;;;-1.25;100.00
50867;BME280;36839;51.946;21.002;2022-12-10T05:59:09;99123.22;;;-1.27;100.00
50867;BME280;36839;51.946;21.002;2022-12-10T06:01:37;99115.84;;;-1.29;100.00
50867;BME280;36839;51.946;21.002;2022-12-10T06:04:05;99115.84;;;-1.29;100.00
50867;BME280;36839;51.946;21.002;2022-12-10T06:06:35;99126.76;;;-1.26;100.00
50867;BME280;36839;51.946;21.002;2022-12-10T06:09:09;99137.06;;;-1.26;100.00
50867;BME280;36839;51.946;21.002;2022-12-10T06:11:38;99131.87;;;-1.27;100.00
50867;BME280;36839;51.946;21.002;2022-12-10T06:14:05;99133.83;;;-1.25;100.00
50867;BME280;36839;51.946;21.002;2022-12-10T06:16:33;99131.65;;;-1.26;100.00
50867;BME280;36839;51.946;21.002;2022-12-10T06:19:02;99131.65;;;-1.26;100.00
50867;BME280;36839;51.946;21.002;2022-12-10T06:21:30;99130.41;;;-1.23;100.00
50867;BME280;36839;51.946;21.002;2022-12-10T06:24:00;99130.41;;;-1.23;100.00
50867;BME280;36839;51.946;21.002;2022-12-10T06:26:28;99147.15;;;-1.24;100.00
50867;BME280;36839;51.946;21.002;2022-12-10T06:28:56;99147.15;;;-1.24;100.00
50867;BME280;36839;51.946;21.002;2022-12-10T06:31:23;99153.32;;;-1.26;100.00
50867;BME280;36839;51.946;21.002;2022-12-10T06:33:52;99156.55;;;-1.26;100.00
50867;BME280;36839;51.946;21.002;2022-12-10T06:36:20;99156.55;;;-1.26;100.00
50867;BME280;36839;51.946;21.002;2022-12-10T06:38:48;99156.55;;;-1.26;100.00
50867;BME280;36839;51.946;21.002;2022-12-10T06:41:17;99164.08;;;-1.28;100.00
50867;BME280;36839;51.946;21.002;2022-12-10T06:43:51;99163.33;;;-1.26;100.00
50867;BME280;36839;51.946;21.002;2022-12-10T06:46:19;99175.81;;;-1.25;100.00
50867;BME280;36839;51.946;21.002;2022-12-10T06:48:48;99167.92;;;-1.27;100.00
50867;BME280;36839;51.946;21.002;2022-12-10T06:51:18;99169.87;;;-1.25;100.00
50867;BME280;36839;51.946;21.002;2022-12-10T06:53:51;99169.87;;;-1.25;100.00
50867;BME280;36839;51.946;21.002;2022-12-10T06:56:20;99181.02;;;-1.24;100.00
50867;BME280;36839;51.946;21.002;2022-12-10T06:58:48;99172.16;;;-1.22;100.00
50867;BME280;36839;51.946;21.002;2022-12-10T07:01:22;99172.16;;;-1.22;100.00
50867;BME280;36839;51.946;21.002;2022-12-10T07:03:52;99165.44;;;-1.28;100.00
50867;BME280;36839;51.946;21.002;2022-12-10T07:06:22;99168.52;;;-1.25;100.00
50867;BME280;36839;51.946;21.002;2022-12-10T07:08:52;99169.05;;;-1.25;100.00
50867;BME280;36839;51.946;21.002;2022-12-10T07:11:21;99169.05;;;-1.25;100.00
50867;BME280;36839;51.946;21.002;2022-12-10T07:13:49;99166.64;;;-1.24;100.00
50867;BME280;36839;51.946;21.002;2022-12-10T07:16:21;99166.64;;;-1.24;100.00
50867;BME280;36839;51.946;21.002;2022-12-10T07:18:48;99172.47;;;-1.21;100.00
50867;BME280;36839;51.946;21.002;2022-12-10T07:21:21;99173.83;;;-1.21;100.00
50867;BME280;36839;51.946;21.002;2022-12-10T07:23:51;99185.27;;;-1.19;100.00
50867;BME280;36839;51.946;21.002;2022-12-10T07:26:21;99173.67;;;-1.17;100.00
50867;BME280;36839;51.946;21.002;2022-12-10T07:28:48;99175.86;;;-1.16;100.00
50867;BME280;36839;51.946;21.002;2022-12-10T07:31:16;99175.86;;;-1.16;100.00
50867;BME280;36839;51.946;21.002;2022-12-10T07:33:44;99178.67;;;-1.13;100.00
50867;BME280;36839;51.946;21.002;2022-12-10T07:36:13;99178.67;;;-1.13;100.00
50867;BME280;36839;51.946;21.002;2022-12-10T07:38:42;99179.17;;;-1.14;100.00
50867;BME280;36839;51.946;21.002;2022-12-10T07:41:12;99185.08;;;-1.08;100.00
50867;BME280;36839;51.946;21.002;2022-12-10T07:43:44;99185.08;;;-1.08;100.00
50867;BME280;36839;51.946;21.002;2022-12-10T07:46:13;99186.73;;;-1.07;100.00
50867;BME280;36839;51.946;21.002;2022-12-10T07:48:42;99172.35;;;-1.07;100.00
50867;BME280;36839;51.946;21.002;2022-12-10T07:51:11;99166.11;;;-1.08;100.00
50867;BME280;36839;51.946;21.002;2022-12-10T07:53:38;99167.53;;;-1.05;100.00
50867;BME280;36839;51.946;21.002;2022-12-10T07:56:06;99162.75;;;-1.03;100.00
50867;BME280;36839;51.946;21.002;2022-12-10T07:58:35;99161.29;;;-1.06;100.00
50867;BME280;36839;51.946;21.002;2022-12-10T08:01:11;99168.24;;;-1.01;100.00
50867;BME280;36839;51.946;21.002;2022-12-10T08:03:38;99166.36;;;-1.00;100.00
50867;BME280;36839;51.946;21.002;2022-12-10T08:06:08;99152.28;;;-1.00;100.00
50867;BME280;36839;51.946;21.002;2022-12-10T08:08:39;99157.48;;;-0.98;100.00
50867;BME280;36839;51.946;21.002;2022-12-10T08:11:06;99149.05;;;-0.99;100.00
50867;BME280;36839;51.946;21.002;2022-12-10T08:13:36;99136.09;;;-0.97;100.00
50867;BME280;36839;51.946;21.002;2022-12-10T08:16:11;99148.59;;;-0.96;100.00
50867;BME280;36839;51.946;21.002;2022-12-10T08:18:36;99148.59;;;-0.96;100.00
50867;BME280;36839;51.946;21.002;2022-12-10T08:21:07;99158.19;;;-0.94;100.00
50867;BME280;36839;51.946;21.002;2022-12-10T08:23:34;99163.37;;;-0.92;100.00
50867;BME280;36839;51.946;21.002;2022-12-10T08:26:05;99169.25;;;-0.86;100.00
50867;BME280;36839;51.946;21.002;2022-12-10T08:28:33;99166.53;;;-0.86;100.00
50867;BME280;36839;51.946;21.002;2022-12-10T08:30:59;99173.54;;;-0.88;100.00
50867;BME280;36839;51.946;21.002;2022-12-10T08:33:26;99169.70;;;-0.89;100.00
50867;BME280;36839;51.946;21.002;2022-12-10T08:36:01;99168.12;;;-0.88;100.00
50867;BME280;36839;51.946;21.002;2022-12-10T08:38:30;99182.38;;;-0.83;100.00
50867;BME280;36839;51.946;21.002;2022-12-10T08:40:57;99186.67;;;-0.84;100.00
50867;BME280;36839;51.946;21.002;2022-12-10T08:43:25;99183.44;;;-0.84;100.00
50867;BME280;36839;51.946;21.002;2022-12-10T08:45:53;99178.31;;;-0.83;100.00
50867;BME280;36839;51.946;21.002;2022-12-10T08:48:21;99183.28;;;-0.80;100.00
50867;BME280;36839;51.946;21.002;2022-12-10T08:50:53;99186.36;;;-0.76;100.00
50867;BME280;36839;51.946;21.002;2022-12-10T08:53:21;99187.19;;;-0.76;100.00
50867;BME280;36839;51.946;21.002;2022-12-10T08:55:54;99184.94;;;-0.79;100.00
50867;BME280;36839;51.946;21.002;2022-12-10T08:58:20;99195.73;;;-0.72;100.00
50867;BME280;36839;51.946;21.002;2022-12-10T09:00:49;99195.80;;;-0.70;100.00
50867;BME280;36839;51.946;21.002;2022-12-10T09:03:16;99199.75;;;-0.66;100.00
50867;BME280;36839;51.946;21.002;2022-12-10T09:05:44;99201.10;;;-0.66;100.00
50867;BME280;36839;51.946;21.002;2022-12-10T09:08:12;99199.52;;;-0.64;100.00
50867;BME280;36839;51.946;21.002;2022-12-10T09:10:43;99196.80;;;-0.64;100.00
50867;BME280;36839;51.946;21.002;2022-12-10T09:13:11;99196.80;;;-0.64;100.00
50867;BME280;36839;51.946;21.002;2022-12-10T09:15:39;99190.93;;;-0.61;100.00
50867;BME280;36839;51.946;21.002;2022-12-10T09:18:07;99197.42;;;-0.53;100.00
50867;BME280;36839;51.946;21.002;2022-12-10T09:20:37;99204.20;;;-0.53;100.00
50867;BME280;36839;51.946;21.002;2022-12-10T09:23:07;99196.30;;;-0.54;100.00
50867;BME280;36839;51.946;21.002;2022-12-10T09:25:36;99188.94;;;-0.47;100.00
50867;BME280;36839;51.946;21.002;2022-12-10T09:28:06;99187.05;;;-0.47;100.00
50867;BME280;36839;51.946;21.002;2022-12-10T09:30:33;99187.05;;;-0.47;100.00
50867;BME280;36839;51.946;21.002;2022-12-10T09:33:00;99198.02;;;-0.51;100.00
50867;BME280;36839;51.946;21.002;2022-12-10T09:35:30;99197.20;;;-0.51;100.00
50867;BME280;36839;51.946;21.002;2022-12-10T09:37:58;99192.53;;;-0.53;100.00
50867;BME280;36839;51.946;21.002;2022-12-10T09:40:40;99193.94;;;-0.60;100.00
50867;BME280;36839;51.946;21.002;2022-12-10T09:43:18;99201.13;;;-0.56;100.00
50867;BME280;36839;51.946;21.002;2022-12-10T09:51:31;99203.66;;;-0.62;100.00
50867;BME280;36839;51.946;21.002;2022-12-10T09:54:02;99216.77;;;-0.59;100.00
50867;BME280;36839;51.946;21.002;2022-12-10T09:56:35;99220.30;;;-0.58;100.00
50867;BME280;36839;51.946;21.002;2022-12-10T09:59:11;99207.27;;;-0.59;100.00
50867;BME280;36839;51.946;21.002;2022-12-10T10:01:31;99205.49;;;-0.55;100.00
50867;BME280;36839;51.946;21.002;2022-12-10T10:04:03;99207.57;;;-0.58;100.00
50867;BME280;36839;51.946;21.002;2022-12-10T10:06:34;99201.77;;;-0.61;100.00
50867;BME280;36839;51.946;21.002;2022-12-10T10:09:02;99206.62;;;-0.54;100.00
50867;BME280;36839;51.946;21.002;2022-12-10T10:11:34;99211.74;;;-0.55;100.00
50867;BME280;36839;51.946;21.002;2022-12-10T10:16:52;99223.14;;;-0.46;100.00
50867;BME280;36839;51.946;21.002;2022-12-10T10:19:25;99216.55;;;-0.48;100.00
50867;BME280;36839;51.946;21.002;2022-12-10T10:21:53;99216.55;;;-0.48;100.00
50867;BME280;36839;51.946;21.002;2022-12-10T10:24:28;99214.69;;;-0.38;100.00
50867;BME280;36839;51.946;21.002;2022-12-10T10:26:59;99219.73;;;-0.42;100.00
50867;BME280;36839;51.946;21.002;2022-12-10T10:29:31;99217.09;;;-0.39;100.00
50867;BME280;36839;51.946;21.002;2022-12-10T10:34:43;99209.13;;;-0.34;100.00
50867;BME280;36839;51.946;21.002;2022-12-10T10:37:20;99202.48;;;-0.29;100.00
50867;BME280;36839;51.946;21.002;2022-12-10T10:39:50;99193.22;;;-0.31;100.00
50867;BME280;36839;51.946;21.002;2022-12-10T10:42:42;99188.25;;;-0.34;100.00
50867;BME280;36839;51.946;21.002;2022-12-10T10:48:13;99187.66;;;-0.36;100.00
50867;BME280;36839;51.946;21.002;2022-12-10T10:50:49;99185.61;;;-0.31;100.00
50867;BME280;36839;51.946;21.002;2022-12-10T10:53:24;99181.70;;;-0.26;100.00
50867;BME280;36839;51.946;21.002;2022-12-10T10:55:57;99167.84;;;-0.27;100.00
50867;BME280;36839;51.946;21.002;2022-12-10T10:58:28;99169.10;;;-0.20;100.00
50867;BME280;36839;51.946;21.002;2022-12-10T11:01:01;99167.91;;;-0.15;100.00
50867;BME280;36839;51.946;21.002;2022-12-10T11:03:30;99173.34;;;-0.15;100.00
50867;BME280;36839;51.946;21.002;2022-12-10T11:05:59;99162.62;;;-0.19;100.00
50867;BME280;36839;51.946;21.002;2022-12-10T11:08:30;99158.48;;;-0.22;100.00
50867;BME280;36839;51.946;21.002;2022-12-10T11:11:51;99158.48;;;-0.22;100.00
50867;BME280;36839;51.946;21.002;2022-12-10T11:13:40;99142.06;;;-0.27;100.00
50867;BME280;36839;51.946;21.002;2022-12-10T11:16:23;99148.39;;;-0.24;100.00
50867;BME280;36839;51.946;21.002;2022-12-10T11:19:03;99148.39;;;-0.24;100.00
50867;BME280;36839;51.946;21.002;2022-12-10T11:21:32;99142.06;;;-0.18;100.00
50867;BME280;36839;51.946;21.002;2022-12-10T11:24:04;99144.55;;;-0.16;100.00
50867;BME280;36839;51.946;21.002;2022-12-10T11:29:09;99142.13;;;-0.24;100.00
50867;BME280;36839;51.946;21.002;2022-12-10T11:31:59;99143.42;;;-0.27;100.00
50867;BME280;36839;51.946;21.002;2022-12-10T11:37:33;99146.20;;;-0.24;100.00
50867;BME280;36839;51.946;21.002;2022-12-10T11:48:46;99133.09;;;-0.18;100.00
50867;BME280;36839;51.946;21.002;2022-12-10T12:07:57;99175.36;;;-0.11;100.00
50867;BME280;36839;51.946;21.002;2022-12-10T12:10:50;99183.96;;;-0.05;100.00
50867;BME280;36839;51.946;21.002;2022-12-10T12:13:22;99183.96;;;-0.05;100.00
50867;BME280;36839;51.946;21.002;2022-12-10T12:21:15;99178.77;;;-0.06;100.00
50867;BME280;36839;51.946;21.002;2022-12-10T12:23:49;99173.56;;;-0.08;100.00
50867;BME280;36839;51.946;21.002;2022-12-10T12:26:38;99154.80;;;-0.18;100.00
50867;BME280;36839;51.946;21.002;2022-12-10T12:29:25;99169.27;;;-0.15;100.00
50867;BME280;36839;51.946;21.002;2022-12-10T12:31:59;99178.70;;;-0.18;100.00
50867;BME280;36839;51.946;21.002;2022-12-10T12:34:43;99173.64;;;-0.14;100.00
50867;BME280;36839;51.946;21.002;2022-12-10T12:37:08;99173.27;;;-0.18;100.00
50867;BME280;36839;51.946;21.002;2022-12-10T12:40:12;99174.70;;;-0.15;100.00
50867;BME280;36839;51.946;21.002;2022-12-10T12:45:38;99187.57;;;-0.20;100.00
50867;BME280;36839;51.946;21.002;2022-12-10T12:50:54;99177.24;;;-0.30;100.00
50867;BME280;36839;51.946;21.002;2022-12-10T12:53:21;99186.20;;;-0.29;100.00
50867;BME280;36839;51.946;21.002;2022-12-10T12:56:04;99186.20;;;-0.29;100.00
50867;BME280;36839;51.946;21.002;2022-12-10T13:04:11;99216.27;;;-0.40;100.00
50867;BME280;36839;51.946;21.002;2022-12-10T13:06:40;99218.69;;;-0.41;100.00
50867;BME280;36839;51.946;21.002;2022-12-10T13:09:27;99223.28;;;-0.41;100.00
50867;BME280;36839;51.946;21.002;2022-12-10T13:14:35;99216.50;;;-0.41;100.00
50867;BME280;36839;51.946;21.002;2022-12-10T13:17:24;99225.87;;;-0.37;100.00
50867;BME280;36839;51.946;21.002;2022-12-10T13:19:39;99228.34;;;-0.36;100.00
50867;BME280;36839;51.946;21.002;2022-12-10T13:22:12;99221.39;;;-0.41;100.00
50867;BME280;36839;51.946;21.002;2022-12-10T13:24:46;99218.16;;;-0.40;100.00
50867;BME280;36839;51.946;21.002;2022-12-10T13:32:47;99221.33;;;-0.43;100.00
50867;BME280;36839;51.946;21.002;2022-12-10T13:35:22;99221.33;;;-0.43;100.00
50867;BME280;36839;51.946;21.002;2022-12-10T13:43:38;99229.16;;;-0.44;100.00
50867;BME280;36839;51.946;21.002;2022-12-10T13:49:00;99228.63;;;-0.44;100.00
50867;BME280;36839;51.946;21.002;2022-12-10T13:54:54;99249.73;;;-0.46;100.00
50867;BME280;36839;51.946;21.002;2022-12-10T13:57:37;99253.65;;;-0.42;100.00
50867;BME280;36839;51.946;21.002;2022-12-10T14:00:08;99253.65;;;-0.42;100.00
50867;BME280;36839;51.946;21.002;2022-12-10T14:05:48;99235.56;;;-0.39;100.00
50867;BME280;36839;51.946;21.002;2022-12-10T14:08:21;99247.72;;;-0.32;100.00
50867;BME280;36839;51.946;21.002;2022-12-10T14:10:48;99247.72;;;-0.32;100.00
50867;BME280;36839;51.946;21.002;2022-12-10T14:13:16;99237.16;;;-0.31;100.00
50867;BME280;36839;51.946;21.002;2022-12-10T14:15:53;99238.39;;;-0.27;100.00
50867;BME280;36839;51.946;21.002;2022-12-10T14:18:24;99238.39;;;-0.27;100.00
50867;BME280;36839;51.946;21.002;2022-12-10T14:20:52;99206.42;;;-0.25;100.00
50867;BME280;36839;51.946;21.002;2022-12-10T14:23:25;99206.42;;;-0.25;100.00
50867;BME280;36839;51.946;21.002;2022-12-10T14:26:26;99199.27;;;-0.38;100.00
50867;BME280;36839;51.946;21.002;2022-12-10T14:28:54;99198.41;;;-0.38;100.00
50867;BME280;36839;51.946;21.002;2022-12-10T14:34:06;99216.57;;;-0.39;100.00
50867;BME280;36839;51.946;21.002;2022-12-10T14:36:43;99217.78;;;-0.44;100.00
50867;BME280;36839;51.946;21.002;2022-12-10T14:39:24;99210.94;;;-0.46;100.00
50867;BME280;36839;51.946;21.002;2022-12-10T14:41:52;99204.05;;;-0.49;100.00
50867;BME280;36839;51.946;21.002;2022-12-10T14:44:19;99212.71;;;-0.49;100.00
50867;BME280;36839;51.946;21.002;2022-12-10T14:46:48;99212.71;;;-0.49;100.00
50867;BME280;36839;51.946;21.002;2022-12-10T14:49:19;99211.53;;;-0.44;100.00
50867;BME280;36839;51.946;21.002;2022-12-10T14:51:47;99218.31;;;-0.44;100.00